Baldwinsville, New York
Current Conditions -  °F | °C
As of 8:54 AM on Tuesday 27 Jan 2015 (Local Time) from KSYR Reporting Station
Broken Clouds Broken Clouds  
Wind Chill: -11°   Ceiling: 14000
Heat Index:   Visibility: 10mi
Dew Point: -2°   Wind: 10mph
Humidity: 76%   Direction: 300°WNW
Pressure: 29.94"   Gusts: NA
Location:  43.16°N, 76.33°W
Report Text: KSYR 271354Z 30009KT 10SM SCT075 BKN140 BKN240 M16/M19 A2994 RMK AO2 SLP143 T11561189 $
Loading
Personal Weather Stations






























Interactive Weather Map New forecast layout! Learn more

10-Day Weather Forecast

Advertisements
Track Severe Weather on mobile